EINN

Shannon Airport

Shannon, Ireland
METAR EINN 230500Z 26008KT 9999 BKN018 11/08 Q1038 NOSIG
Observed Flight Rules
Oct-23 @ 05:00 UTC (18 minutes ago) Marginal Visual Flight Rules
Wind Visibility Clouds
260° at 8 knots 10,000+ meters
  • Broken at 1,800' AGL
Temperatures Readings
Current 11°C / 52°F
Dewpoint 8°C / 46°F
Humidity 82%
Altimeter 30.65" Hg
Pressure 1038 hPa
Elevation 20
METAR EINN 230500Z 26008KT 9999 BKN018 11/08 Q1038 NOSIG
Observed Flight Rules
Oct-23 @ 05:00 UTC
(18 minutes ago)
MVFR
Wind Visibility
260° at 8 knots 10,000+ meters
Clouds
  • Broken at 1,800' AGL
Temperature Dewpoint
11°C / 52°F 8°C / 46°F
Humidity Altimeter Pressure
82% 30.65" Hg 1038 hPa